Time;durP1;ratioP1;P1;durP2;ratioP2;P2;SDS_P1;SDS_P2;PMS_P1;PMS_P2;Temp;Humidity;BMP_temperature;BMP_pressure;BME280_temperature;BME280_humidity;BME280_pressure;Samples;Min_cycle;Max_cycle;Signal;HPM_P1;HPM_P2
2022/06/17 00:01:22;;;;;;;1999.90;999.90;;;11.80;99.90;;;;;;5045019;28;20055;-75
2022/06/17 00:03:57;;;;;;;1999.90;999.90;;;11.80;99.90;;;;;;5030200;28;20465;-76
2022/06/17 00:06:26;;;;;;;1999.90;999.90;;;11.70;99.90;;;;;;5046895;28;20045;-76
2022/06/17 00:08:53;;;;;;;1999.90;999.90;;;11.70;99.90;;;;;;5027694;28;20112;-76
2022/06/17 00:11:30;;;;;;;1999.90;999.90;;;11.70;99.90;;;;;;5042996;28;20069;-76
2022/06/17 00:13:55;;;;;;;1999.90;999.90;;;11.70;99.90;;;;;;5050714;28;20045;-76
2022/06/17 00:16:22;;;;;;;1999.90;999.90;;;11.70;99.90;;;;;;5046471;28;20489;-76
2022/06/17 00:18:49;;;;;;;1999.90;999.90;;;11.60;99.90;;;;;;5045281;28;20405;-76
2022/06/17 00:21:23;;;;;;;1999.90;999.90;;;11.60;99.90;;;;;;5012616;28;20167;-76
2022/06/17 00:23:49;;;;;;;1999.90;999.90;;;11.70;99.90;;;;;;5050028;28;20084;-76
2022/06/17 00:26:15;;;;;;;1999.90;999.90;;;11.70;99.90;;;;;;5033255;28;20089;-76
2022/06/17 00:28:41;;;;;;;1999.90;999.90;;;11.70;99.90;;;;;;5045444;28;20044;-76
2022/06/17 00:31:06;;;;;;;1999.90;999.90;;;11.70;99.90;;;;;;5042770;28;20041;-76
2022/06/17 00:33:32;;;;;;;1999.90;999.90;;;11.70;99.90;;;;;;5043126;28;20497;-75
2022/06/17 00:35:57;;;;;;;1999.90;999.90;;;11.70;99.90;;;;;;5029144;28;20083;-76
2022/06/17 00:38:26;;;;;;;1999.90;999.90;;;11.70;99.90;;;;;;5029698;28;20493;-76
2022/06/17 00:40:53;;;;;;;1999.90;999.90;;;11.70;99.90;;;;;;5037303;28;20512;-76
2022/06/17 00:43:33;;;;;;;1999.90;999.90;;;11.80;99.90;;;;;;5031593;28;20065;-76
2022/06/17 00:46:24;;;;;;;1999.90;999.90;;;11.70;99.90;;;;;;5053760;28;20419;-76
2022/06/17 00:49:04;;;;;;;1999.90;999.90;;;11.70;99.90;;;;;;5046422;28;20122;-76
2022/06/17 00:51:38;;;;;;;1999.90;999.90;;;11.70;99.90;;;;;;5027079;28;20060;-76
2022/06/17 00:54:20;;;;;;;1999.90;999.90;;;11.60;99.90;;;;;;5045498;28;20038;-76
2022/06/17 00:56:46;;;;;;;1999.90;999.90;;;11.60;99.90;;;;;;5023863;28;20047;-76
2022/06/17 00:59:15;;;;;;;1999.90;999.90;;;11.70;99.90;;;;;;5012658;28;20659;-76
2022/06/17 01:01:50;;;;;;;1999.90;999.90;;;11.70;99.90;;;;;;5029289;28;20120;-76
2022/06/17 01:04:20;;;;;;;1999.90;999.90;;;11.70;99.90;;;;;;5028510;28;20091;-76
2022/06/17 01:07:07;;;;;;;1999.90;999.90;;;11.80;99.90;;;;;;5040819;28;20092;-76
2022/06/17 01:12:23;;;;;;;1999.90;999.90;;;11.80;99.90;;;;;;5025689;28;20348;-76
2022/06/17 01:14:49;;;;;;;1999.90;999.90;;;11.80;99.90;;;;;;5028244;28;20049;-76
2022/06/17 01:17:18;;;;;;;1999.90;999.90;;;11.80;99.90;;;;;;5057030;28;20041;-76
2022/06/17 01:19:50;;;;;;;1999.90;999.90;;;11.70;99.90;;;;;;5045474;28;20505;-76
2022/06/17 01:22:24;;;;;;;1999.90;999.90;;;11.80;99.90;;;;;;5044947;28;20070;-76
2022/06/17 01:24:52;;;;;;;1999.90;999.90;;;11.80;99.90;;;;;;5011205;28;20124;-76
2022/06/17 01:27:20;;;;;;;1999.90;999.90;;;11.80;99.90;;;;;;5024457;28;20038;-76
2022/06/17 01:29:46;;;;;;;1999.90;999.90;;;11.80;99.90;;;;;;5027912;28;20041;-76
2022/06/17 01:32:14;;;;;;;1999.90;999.90;;;11.90;99.90;;;;;;5045182;28;20144;-76
2022/06/17 01:34:40;;;;;;;1999.90;999.90;;;11.90;99.90;;;;;;5041027;28;20405;-76
2022/06/17 01:37:07;;;;;;;1999.90;999.90;;;11.90;99.90;;;;;;5029002;28;20046;-76
2022/06/17 01:39:34;;;;;;;1999.90;999.90;;;11.90;99.90;;;;;;5027997;28;20163;-76
2022/06/17 01:41:59;;;;;;;1999.90;999.90;;;11.90;99.90;;;;;;5026414;28;20526;-76
2022/06/17 01:44:33;;;;;;;1999.90;999.90;;;11.90;99.90;;;;;;5028348;28;20041;-76
2022/06/17 01:47:01;;;;;;;1999.90;999.90;;;11.80;99.90;;;;;;5024518;28;20038;-76
2022/06/17 01:49:33;;;;;;;1999.90;999.90;;;11.80;99.90;;;;;;5057610;28;20098;-76
2022/06/17 01:52:11;;;;;;;1999.90;999.90;;;11.80;99.90;;;;;;5044599;28;20410;-76
2022/06/17 01:54:59;;;;;;;1999.90;999.90;;;11.80;99.90;;;;;;5037170;28;20050;-76
2022/06/17 01:57:32;;;;;;;1999.90;999.90;;;11.80;99.90;;;;;;5021760;28;20041;-76
2022/06/17 02:00:06;;;;;;;1999.90;999.90;;;11.80;99.90;;;;;;5044606;28;20049;-76
2022/06/17 02:02:32;;;;;;;1999.90;999.90;;;11.80;99.90;;;;;;5009486;28;20045;-75
2022/06/17 02:05:05;;;;;;;1999.90;999.90;;;11.80;99.90;;;;;;5046432;28;20042;-76
2022/06/17 02:07:37;;;;;;;1999.90;999.90;;;11.80;99.90;;;;;;5020459;28;20042;-76
2022/06/17 02:10:04;;;;;;;1999.90;999.90;;;11.80;99.90;;;;;;5027360;28;20049;-76
2022/06/17 02:12:30;;;;;;;1105.72;523.83;;;11.70;99.90;;;;;;5026686;28;20067;-76
2022/06/17 02:14:58;;;;;;;1999.90;999.90;;;11.70;99.90;;;;;;5031704;28;20045;-76
2022/06/17 02:17:29;;;;;;;1999.90;999.90;;;11.70;99.90;;;;;;5027632;28;20490;-76
2022/06/17 02:19:56;;;;;;;1999.90;999.90;;;11.70;99.90;;;;;;5017368;28;20438;-76
2022/06/17 02:22:29;;;;;;;1999.90;999.90;;;11.60;99.90;;;;;;5031340;28;20066;-76
2022/06/17 02:25:03;;;;;;;1999.90;999.90;;;11.60;99.90;;;;;;5045204;28;20452;-76
2022/06/17 02:27:33;;;;;;;1999.90;999.90;;;11.70;99.90;;;;;;5014786;28;20045;-76
2022/06/17 02:30:00;;;;;;;1999.90;999.90;;;11.70;99.90;;;;;;5027128;28;20128;-76
2022/06/17 02:32:26;;;;;;;1999.90;999.90;;;11.70;99.90;;;;;;5006561;28;20462;-76
2022/06/17 02:35:26;;;;;;;1999.90;999.90;;;11.70;99.90;;;;;;5026608;28;20041;-76
2022/06/17 02:37:53;;;;;;;1999.90;999.90;;;11.60;99.90;;;;;;5027091;28;20045;-76
2022/06/17 02:40:36;;;;;;;1999.90;999.90;;;11.60;99.90;;;;;;5046831;28;20049;-76
2022/06/17 02:43:05;;;;;;;1999.90;999.90;;;11.50;99.90;;;;;;5024984;28;20045;-76
2022/06/17 02:45:35;;;;;;;1999.90;999.90;;;11.50;99.90;;;;;;5027552;28;20045;-76
2022/06/17 02:48:04;;;;;;;1999.90;999.90;;;11.50;99.90;;;;;;5016561;28;20056;-76
2022/06/17 02:50:31;;;;;;;1999.90;999.90;;;11.60;99.90;;;;;;5043386;28;20517;-76
2022/06/17 02:52:59;;;;;;;1999.90;999.90;;;11.60;99.90;;;;;;5026869;28;20116;-76
2022/06/17 02:55:35;;;;;;;1999.90;999.90;;;11.50;99.90;;;;;;5028761;28;20041;-76
2022/06/17 02:58:23;;;;;;;1999.90;999.90;;;11.50;99.90;;;;;;5018352;28;20456;-76
2022/06/17 03:00:50;;;;;;;1999.90;999.90;;;11.50;99.90;;;;;;5013764;28;20052;-76
2022/06/17 03:03:19;;;;;;;1999.90;999.90;;;11.50;99.90;;;;;;5009328;28;20044;-76
2022/06/17 03:05:45;;;;;;;1999.90;999.90;;;11.50;99.90;;;;;;5043275;28;20446;-76
2022/06/17 03:08:22;;;;;;;1999.90;999.90;;;11.50;99.90;;;;;;5044318;28;20037;-76
2022/06/17 03:10:50;;;;;;;1999.90;999.90;;;11.50;99.90;;;;;;5010380;28;20052;-76
2022/06/17 03:13:23;;;;;;;1999.90;999.90;;;11.60;99.90;;;;;;5049821;28;20040;-76
2022/06/17 03:15:50;;;;;;;;;;;11.60;99.90;;;;;;5024024;28;20103;-76
2022/06/17 03:18:16;;;;;;;1999.90;999.90;;;11.70;99.90;;;;;;5047184;28;20308;-76
2022/06/17 03:20:45;;;;;;;1999.90;999.90;;;11.80;99.90;;;;;;5030478;28;20045;-76
2022/06/17 03:23:15;;;;;;;1999.90;999.90;;;11.80;99.90;;;;;;5046785;28;20533;-76
2022/06/17 03:25:47;;;;;;;1999.90;999.90;;;11.90;99.90;;;;;;5029625;28;20057;-76
2022/06/17 03:28:18;;;;;;;1999.90;999.90;;;12.00;99.90;;;;;;5047974;28;20501;-76
2022/06/17 03:31:00;;;;;;;1999.90;999.90;;;12.10;99.90;;;;;;5030543;28;20050;-76
2022/06/17 03:33:38;;;;;;;1999.90;999.90;;;12.20;99.90;;;;;;5045587;28;20144;-76
2022/06/17 03:36:11;;;;;;;1999.90;999.90;;;12.30;99.90;;;;;;5046951;28;20088;-76
2022/06/17 03:39:07;;;;;;;1999.90;999.90;;;12.30;99.90;;;;;;5046145;28;20041;-76
2022/06/17 03:41:49;;;;;;;1999.90;999.90;;;12.30;99.90;;;;;;5048754;28;20060;-76
2022/06/17 03:44:22;;;;;;;1999.90;999.90;;;12.40;99.90;;;;;;5025733;28;20053;-76
2022/06/17 03:47:04;;;;;;;1999.90;999.90;;;12.50;99.90;;;;;;5044924;28;20406;-76
2022/06/17 03:49:37;;;;;;;1999.90;999.90;;;12.50;99.90;;;;;;5047643;28;20171;-76
2022/06/17 03:52:31;;;;;;;1999.90;999.90;;;12.50;99.90;;;;;;5030635;28;20448;-77
2022/06/17 03:54:56;;;;;;;1999.90;999.90;;;12.60;99.90;;;;;;5043501;28;20049;-76
2022/06/17 03:57:25;;;;;;;1999.90;999.90;;;12.70;99.90;;;;;;5042451;28;20048;-76
2022/06/17 03:59:52;;;;;;;1999.90;999.90;;;12.70;99.90;;;;;;5046198;28;20136;-76
2022/06/17 04:02:18;;;;;;;1999.90;999.90;;;12.80;99.90;;;;;;5023569;28;20421;-76
2022/06/17 04:04:49;;;;;;;1999.90;999.90;;;12.90;99.90;;;;;;5012906;28;20136;-76
2022/06/17 04:07:15;;;;;;;1999.90;999.90;;;13.00;99.90;;;;;;5030222;28;20056;-76
2022/06/17 04:09:44;;;;;;;1999.90;999.90;;;13.20;99.90;;;;;;5029096;28;20493;-76
2022/06/17 04:12:12;;;;;;;1999.90;999.90;;;13.30;99.90;;;;;;5022740;28;20038;-76
2022/06/17 04:15:14;;;;;;;1999.90;999.90;;;13.40;99.90;;;;;;5046758;28;20049;-76
2022/06/17 04:17:43;;;;;;;1999.90;999.90;;;13.50;99.90;;;;;;5028576;28;20048;-76
2022/06/17 04:20:11;;;;;;;1999.90;999.90;;;13.60;99.90;;;;;;5012742;28;20084;-76
2022/06/17 04:22:38;;;;;;;1999.90;999.90;;;13.60;99.90;;;;;;5016480;28;20475;-76
2022/06/17 04:25:10;;;;;;;1999.90;999.90;;;13.70;99.90;;;;;;5043702;28;20108;-76
2022/06/17 04:30:24;;;;;;;1999.90;999.90;;;14.00;99.90;;;;;;5028515;28;20052;-76
2022/06/17 04:32:56;;;;;;;1999.90;999.90;;;14.10;99.90;;;;;;5044432;28;20117;-76
2022/06/17 04:35:22;;;;;;;1999.90;999.90;;;14.20;99.90;;;;;;5044850;28;20047;-77
2022/06/17 04:37:47;;;;;;;1999.90;999.90;;;14.30;99.90;;;;;;5038286;28;20842;-77
2022/06/17 04:40:39;;;;;;;1999.90;999.90;;;14.40;99.90;;;;;;5030471;28;20063;-77
2022/06/17 04:43:26;;;;;;;1999.90;999.90;;;14.40;99.90;;;;;;5028094;28;20073;-77
2022/06/17 04:45:59;;;;;;;1999.90;999.90;;;14.50;99.90;;;;;;5042945;28;20046;-77
2022/06/17 04:48:25;;;;;;;1999.90;999.90;;;14.50;99.90;;;;;;5029029;28;20052;-77
2022/06/17 04:50:51;;;;;;;1999.90;999.90;;;14.60;99.90;;;;;;5024161;28;20424;-77
2022/06/17 04:53:17;;;;;;;1999.90;999.90;;;14.60;99.90;;;;;;5030061;28;20053;-77
2022/06/17 04:55:44;;;;;;;1999.90;999.90;;;14.70;99.90;;;;;;5045731;28;20045;-77
2022/06/17 04:58:17;;;;;;;1999.90;999.90;;;14.70;99.90;;;;;;5037829;28;20049;-77
2022/06/17 05:00:46;;;;;;;1999.90;999.90;;;14.80;99.90;;;;;;5028968;28;20486;-77
2022/06/17 05:03:12;;;;;;;1999.90;999.90;;;14.80;99.90;;;;;;5046564;28;20045;-77
2022/06/17 05:05:41;;;;;;;1999.90;999.90;;;14.90;99.90;;;;;;5025837;28;20034;-77
2022/06/17 05:08:32;;;;;;;1999.90;999.90;;;15.00;99.90;;;;;;5045621;28;20045;-77
2022/06/17 05:11:26;;;;;;;1999.90;999.90;;;15.10;99.90;;;;;;5031998;28;20101;-76
2022/06/17 05:14:03;;;;;;;;;;;15.20;99.90;;;;;;5025269;28;20080;-77
2022/06/17 05:16:29;;;;;;;1999.90;999.90;;;15.20;99.90;;;;;;5061635;28;19921;-77
2022/06/17 05:18:54;;;;;;;1999.90;999.90;;;15.30;99.90;;;;;;5044938;28;20456;-77
2022/06/17 05:21:22;;;;;;;1999.90;999.90;;;15.30;99.90;;;;;;5053101;28;20461;-77
2022/06/17 05:23:51;;;;;;;1999.90;999.90;;;15.30;99.90;;;;;;5028743;28;20112;-77
2022/06/17 05:26:17;;;;;;;1999.90;999.90;;;15.40;99.90;;;;;;5048134;28;20094;-77
2022/06/17 05:28:43;;;;;;;1999.90;999.90;;;15.40;99.90;;;;;;5040889;28;20534;-77
2022/06/17 05:31:13;;;;;;;1999.90;999.90;;;15.40;99.90;;;;;;5031725;28;20045;-77
2022/06/17 05:33:39;;;;;;;1999.90;999.90;;;15.40;99.90;;;;;;5028962;28;20043;-77
2022/06/17 05:36:06;;;;;;;1999.90;999.90;;;15.50;99.90;;;;;;5036410;28;20048;-77
2022/06/17 05:38:31;;;;;;;1999.90;999.90;;;15.50;99.90;;;;;;5039675;28;20049;-77
2022/06/17 05:40:57;;;;;;;1999.90;999.90;;;15.60;99.90;;;;;;5044276;28;20044;-77
2022/06/17 05:43:23;;;;;;;1999.90;999.90;;;15.60;99.90;;;;;;5036375;28;20041;-77
2022/06/17 05:45:49;;;;;;;1999.90;999.90;;;15.70;99.90;;;;;;5025393;28;20044;-77
2022/06/17 05:48:15;;;;;;;1999.90;999.90;;;15.80;99.90;;;;;;5028188;28;20576;-77
2022/06/17 05:50:41;;;;;;;1999.90;999.90;;;15.80;99.90;;;;;;5041788;28;20073;-77
2022/06/17 05:53:09;;;;;;;1999.90;999.90;;;15.90;99.90;;;;;;5021247;28;20033;-77
2022/06/17 05:55:37;;;;;;;1999.90;999.90;;;15.90;99.90;;;;;;5027433;28;20415;-77
2022/06/17 05:58:04;;;;;;;1999.90;999.90;;;16.00;99.90;;;;;;5044522;28;20049;-77
2022/06/17 06:00:31;;;;;;;1999.90;999.90;;;16.10;99.90;;;;;;5044058;28;20068;-77
2022/06/17 06:03:04;;;;;;;1999.90;999.90;;;16.20;99.90;;;;;;5041678;28;20184;-77
2022/06/17 06:05:32;;;;;;;1999.90;999.90;;;16.30;99.90;;;;;;5058193;28;20091;-77
2022/06/17 06:07:58;;;;;;;1999.90;999.90;;;16.30;99.90;;;;;;5021705;28;20073;-77
2022/06/17 06:10:24;;;;;;;1999.90;999.90;;;16.40;99.90;;;;;;5056532;28;20064;-77
2022/06/17 06:13:05;;;;;;;1999.90;999.90;;;16.40;99.90;;;;;;5024627;28;20405;-78
2022/06/17 06:15:39;;;;;;;1999.90;999.90;;;16.50;99.90;;;;;;5044110;28;20102;-77
2022/06/17 06:18:18;;;;;;;1999.90;999.90;;;16.60;99.90;;;;;;5039156;28;20048;-77
2022/06/17 06:20:43;;;;;;;1999.90;999.90;;;16.70;99.90;;;;;;5027169;28;20053;-77
2022/06/17 06:23:09;;;;;;;1999.90;999.90;;;16.80;99.90;;;;;;5007497;28;20394;-77
2022/06/17 06:25:35;;;;;;;1999.90;999.90;;;16.80;99.90;;;;;;5038529;28;20049;-77
2022/06/17 06:28:17;;;;;;;1999.90;999.90;;;16.90;99.90;;;;;;5025669;28;20045;-77
2022/06/17 06:30:53;;;;;;;1999.90;999.90;;;17.00;99.90;;;;;;5055161;28;20030;-77
2022/06/17 06:33:19;;;;;;;1999.90;999.90;;;17.10;99.90;;;;;;5028468;28;20068;-77
2022/06/17 06:35:45;;;;;;;1999.90;999.90;;;17.30;99.90;;;;;;5048744;28;20037;-77
2022/06/17 06:38:11;;;;;;;1999.90;999.90;;;17.40;99.90;;;;;;5040752;28;20047;-76
2022/06/17 06:40:36;;;;;;;1999.90;999.90;;;17.50;99.90;;;;;;4994929;28;20091;-77
2022/06/17 06:43:02;;;;;;;1999.90;999.90;;;17.70;99.90;;;;;;5026174;28;20041;-77
2022/06/17 06:45:31;;;;;;;1999.90;999.90;;;17.90;99.90;;;;;;5040105;28;20037;-77
2022/06/17 06:47:59;;;;;;;1999.90;999.90;;;18.10;99.90;;;;;;5031946;28;20055;-77
2022/06/17 06:50:28;;;;;;;1999.90;999.90;;;18.20;99.90;;;;;;5010714;28;20040;-77
2022/06/17 06:52:55;;;;;;;1999.90;999.90;;;18.30;99.90;;;;;;5026850;28;20077;-77
2022/06/17 06:55:21;;;;;;;1999.90;999.90;;;18.50;99.90;;;;;;5026449;28;20492;-77
2022/06/17 06:57:52;;;;;;;1999.90;999.90;;;18.60;99.90;;;;;;5039578;28;20056;-78
2022/06/17 07:00:24;;;;;;;1999.90;999.90;;;18.80;99.90;;;;;;4998718;28;20057;-77
2022/06/17 07:02:50;;;;;;;1999.90;999.90;;;19.00;99.90;;;;;;5015685;28;20047;-77
2022/06/17 07:05:15;;;;;;;1999.90;999.90;;;19.20;99.90;;;;;;5026924;28;20048;-77
2022/06/17 07:07:42;;;;;;;1999.90;999.90;;;19.20;99.90;;;;;;5017900;28;20383;-77
2022/06/17 07:10:10;;;;;;;1999.90;999.90;;;19.20;99.90;;;;;;5025382;28;20780;-78
2022/06/17 07:12:36;;;;;;;1999.90;999.90;;;19.20;99.90;;;;;;5026088;28;20077;-77
2022/06/17 07:15:02;;;;;;;1999.90;999.90;;;19.20;99.90;;;;;;5023807;28;20096;-78
2022/06/17 07:17:27;;;;;;;1999.90;999.90;;;19.20;99.90;;;;;;5024860;28;20112;-78
2022/06/17 07:19:53;;;;;;;1999.90;999.90;;;19.20;99.90;;;;;;5023891;28;20852;-77
2022/06/17 07:22:20;;;;;;;1999.90;999.90;;;19.20;99.90;;;;;;5059452;28;20127;-77
2022/06/17 07:24:46;;;;;;;1999.90;999.90;;;19.20;99.90;;;;;;5008690;28;20092;-78
2022/06/17 07:27:11;;;;;;;1999.90;999.90;;;19.30;99.90;;;;;;5058665;28;20042;-77
2022/06/17 07:29:37;;;;;;;1999.90;999.90;;;19.50;99.90;;;;;;5034504;28;20095;-78
2022/06/17 07:32:03;;;;;;;1999.90;999.90;;;19.80;99.90;;;;;;5041225;28;20092;-77
2022/06/17 07:34:28;;;;;;;1999.90;999.90;;;20.00;99.90;;;;;;5007754;28;20123;-77
2022/06/17 07:39:53;;;;;;;1999.90;999.90;;;20.40;99.90;;;;;;5020790;28;20037;-76
2022/06/17 07:42:19;;;;;;;1999.90;999.90;;;20.50;99.90;;;;;;5026980;28;20049;-78
2022/06/17 07:44:45;;;;;;;1999.90;999.90;;;20.60;99.90;;;;;;5020996;28;20054;-77
2022/06/17 07:47:15;;;;;;;1999.90;999.90;;;20.70;99.90;;;;;;5025179;28;20507;-78
2022/06/17 07:49:40;;;;;;;1999.90;999.90;;;20.80;99.90;;;;;;5043227;28;20076;-78
2022/06/17 07:52:06;;;;;;;1999.90;999.90;;;20.80;99.90;;;;;;5009946;28;20037;-78
2022/06/17 07:54:32;;;;;;;1999.90;999.90;;;20.90;99.90;;;;;;5020252;28;20120;-78
2022/06/17 07:56:57;;;;;;;1999.90;999.90;;;20.90;99.90;;;;;;5041090;28;20116;-78
2022/06/17 07:59:24;;;;;;;1999.90;999.90;;;21.00;99.90;;;;;;5034284;28;20046;-78
2022/06/17 08:01:49;;;;;;;1999.90;999.90;;;21.00;99.90;;;;;;5027737;28;20123;-77
2022/06/17 08:04:15;;;;;;;1999.90;999.90;;;21.00;99.90;;;;;;5046825;28;20462;-78
2022/06/17 08:06:41;;;;;;;1999.90;999.90;;;21.10;99.90;;;;;;5042649;28;20052;-78
2022/06/17 08:09:06;;;;;;;1999.90;999.90;;;21.20;99.90;;;;;;5029401;28;20406;-78
2022/06/17 08:11:32;;;;;;;1999.90;999.90;;;21.30;99.90;;;;;;5033818;28;20057;-76
2022/06/17 08:13:58;;;;;;;1999.90;999.90;;;21.40;99.90;;;;;;5009935;28;20037;-77
2022/06/17 08:16:23;;;;;;;1999.90;999.90;;;21.50;99.80;;;;;;5044443;28;20041;-77
2022/06/17 08:18:49;;;;;;;1999.90;999.90;;;22.00;99.90;;;;;;5026333;28;20049;-77
2022/06/17 08:21:15;;;;;;;1999.90;999.90;;;22.60;98.90;;;;;;5029326;28;20380;-78
2022/06/17 08:23:41;;;;;;;1999.90;999.90;;;23.10;97.30;;;;;;5028324;28;20045;-78
2022/06/17 08:26:07;;;;;;;1999.90;999.90;;;23.30;95.10;;;;;;5045108;28;20537;-77
2022/06/17 08:28:33;;;;;;;1999.90;999.90;;;23.40;96.40;;;;;;5028099;28;20451;-78
2022/06/17 08:30:58;;;;;;;1999.90;999.90;;;23.30;96.30;;;;;;5028256;28;20037;-78
2022/06/17 08:33:32;;;;;;;1999.90;999.90;;;23.20;93.90;;;;;;5028542;28;20486;-78
2022/06/17 08:36:06;;;;;;;1999.90;999.90;;;23.10;94.20;;;;;;5025256;28;20387;-76
2022/06/17 08:38:36;;;;;;;1999.90;999.90;;;23.00;93.90;;;;;;5027893;28;20049;-78
2022/06/17 08:41:15;;;;;;;1999.90;999.90;;;22.90;94.70;;;;;;5045843;28;20057;-78
2022/06/17 08:44:03;;;;;;;1999.90;999.90;;;22.80;94.50;;;;;;5028846;28;20042;-77
2022/06/17 08:47:01;;;;;;;1999.90;999.90;;;22.60;94.00;;;;;;5011284;28;20048;-77
2022/06/17 08:50:03;;;;;;;1999.90;999.90;;;22.40;95.00;;;;;;5061116;28;20041;-78
2022/06/17 08:52:57;;;;;;;1999.90;999.90;;;22.40;95.40;;;;;;5001591;28;20117;-78
2022/06/17 08:55:38;;;;;;;1999.90;999.90;;;22.40;96.00;;;;;;5029136;28;20041;-78
2022/06/17 08:58:09;;;;;;;1999.90;999.90;;;22.40;95.50;;;;;;5028744;28;20056;-78
2022/06/17 09:00:37;;;;;;;1999.90;999.90;;;22.40;94.80;;;;;;5013880;28;20045;-78
2022/06/17 09:03:11;;;;;;;1999.90;999.90;;;22.40;95.70;;;;;;5008868;28;20077;-77
2022/06/17 09:05:48;;;;;;;1999.90;999.90;;;22.40;95.80;;;;;;5027575;28;20045;-78
2022/06/17 09:08:38;;;;;;;1999.90;999.90;;;22.50;95.00;;;;;;5021645;28;20037;-77
2022/06/17 09:11:20;;;;;;;1999.90;999.90;;;22.50;95.00;;;;;;5040914;28;20061;-78
2022/06/17 09:14:20;;;;;;;1999.90;999.90;;;22.60;95.50;;;;;;5041148;28;20033;-78
2022/06/17 09:16:48;;;;;;;1999.90;999.90;;;22.60;95.60;;;;;;4999898;28;20548;-78
2022/06/17 09:19:21;;;;;;;1999.90;999.90;;;22.60;94.40;;;;;;5024439;28;20088;-78
2022/06/17 09:21:53;;;;;;;1999.90;999.90;;;22.70;95.50;;;;;;5018466;28;20089;-78
2022/06/17 09:24:40;;;;;;;1999.90;999.90;;;22.90;95.10;;;;;;5030895;28;20401;-78
2022/06/17 09:27:12;;;;;;;1999.90;999.90;;;23.30;95.70;;;;;;5024750;28;20121;-78
2022/06/17 09:30:17;;;;;;;1999.90;999.90;;;23.40;95.20;;;;;;5029078;28;20511;-76
2022/06/17 09:32:44;;;;;;;1999.90;999.90;;;23.60;94.30;;;;;;5043224;28;20052;-78
2022/06/17 09:35:27;;;;;;;1999.90;999.90;;;23.70;93.50;;;;;;5019316;28;20361;-77
2022/06/17 09:37:53;;;;;;;;;;;23.80;92.40;;;;;;5046716;28;20053;-78
2022/06/17 09:40:21;;;;;;;1999.90;999.90;;;23.90;92.50;;;;;;5046807;28;19924;-77
2022/06/17 09:43:01;;;;;;;1999.90;999.90;;;24.10;91.80;;;;;;5027123;28;20064;-78
2022/06/17 09:45:33;;;;;;;1999.90;999.90;;;24.30;92.10;;;;;;5011208;28;20037;-78
2022/06/17 09:48:05;;;;;;;1999.90;999.90;;;24.40;91.50;;;;;;5025652;28;20053;-78
2022/06/17 09:50:47;;;;;;;1999.90;999.90;;;24.40;90.70;;;;;;5054403;28;20033;-78
2022/06/17 09:53:23;;;;;;;1999.90;999.90;;;24.20;91.20;;;;;;5060291;28;20512;-78
2022/06/17 09:55:55;;;;;;;1999.90;999.90;;;24.10;91.10;;;;;;5055474;28;20045;-78
2022/06/17 09:58:33;;;;;;;1999.90;999.90;;;24.10;91.20;;;;;;5044790;28;20037;-78
2022/06/17 10:00:59;;;;;;;1999.90;999.90;;;24.00;91.40;;;;;;5017281;28;20052;-77
2022/06/17 10:03:31;;;;;;;1999.90;999.90;;;23.90;89.40;;;;;;5003977;28;20041;-77
2022/06/17 10:06:26;;;;;;;1999.90;999.90;;;23.80;87.70;;;;;;5025172;28;20121;-78
2022/06/17 10:09:00;;;;;;;1999.90;999.90;;;23.80;90.20;;;;;;5025809;28;20045;-78
2022/06/17 10:11:47;;;;;;;1999.90;999.90;;;23.80;89.50;;;;;;5027401;28;20044;-78
2022/06/17 10:14:36;;;;;;;1999.90;999.90;;;23.80;89.70;;;;;;5027347;28;20501;-78
2022/06/17 10:20:45;;;;;;;1999.90;999.90;;;23.70;90.30;;;;;;5051052;28;20061;-78
2022/06/17 10:23:17;;;;;;;1999.90;999.90;;;23.70;89.10;;;;;;5037124;28;20154;-77
2022/06/17 10:26:00;;;;;;;1999.90;999.90;;;23.70;91.00;;;;;;5027455;28;20053;-78
2022/06/17 10:28:46;;;;;;;1999.90;999.90;;;23.90;90.50;;;;;;5041177;28;20084;-78
2022/06/17 10:31:30;;;;;;;1999.90;999.90;;;24.00;91.10;;;;;;5043017;28;20039;-78
2022/06/17 10:34:00;;;;;;;1999.90;999.90;;;24.20;90.40;;;;;;5026409;28;20044;-78
2022/06/17 10:36:25;;;;;;;1999.90;999.90;;;24.40;90.30;;;;;;5011324;28;20088;-78
2022/06/17 10:38:51;;;;;;;1999.90;999.90;;;24.40;89.80;;;;;;5025921;28;20045;-78
2022/06/17 10:41:17;;;;;;;1999.90;999.90;;;24.60;90.20;;;;;;5058495;28;20109;-78
2022/06/17 10:43:50;;;;;;;1999.90;999.90;;;24.80;90.20;;;;;;5059921;28;20572;-78
2022/06/17 10:46:21;;;;;;;1999.90;999.90;;;25.00;90.10;;;;;;5043825;28;20119;-77
2022/06/17 10:49:16;;;;;;;1999.90;999.90;;;25.20;90.40;;;;;;5022285;28;20056;-78
2022/06/17 10:51:44;;;;;;;1999.90;999.90;;;25.30;89.60;;;;;;5007874;28;20103;-78
2022/06/17 10:54:28;;;;;;;1999.90;999.90;;;25.40;88.30;;;;;;5040843;28;20076;-78
2022/06/17 10:57:06;;;;;;;1999.90;999.90;;;25.50;89.60;;;;;;5033975;28;20045;-78
2022/06/17 10:59:39;;;;;;;1999.90;999.90;;;25.70;88.50;;;;;;5016946;28;20037;-78
2022/06/17 11:02:19;;;;;;;1999.90;999.90;;;25.90;87.20;;;;;;5043831;28;20037;-78
2022/06/17 11:04:54;;;;;;;1999.90;999.90;;;25.80;85.20;;;;;;5026573;28;20037;-78
2022/06/17 11:07:34;;;;;;;1999.90;999.90;;;25.70;83.40;;;;;;4997281;28;20033;-77
2022/06/17 11:10:16;;;;;;;1999.90;999.90;;;25.60;84.50;;;;;;5026981;28;20060;-78
2022/06/17 11:12:56;;;;;;;1999.90;999.90;;;25.60;85.40;;;;;;5033497;28;20045;-78
2022/06/17 11:15:36;;;;;;;1999.90;999.90;;;25.60;84.80;;;;;;5039440;28;20419;-78
2022/06/17 11:18:08;;;;;;;1999.90;999.90;;;25.60;83.80;;;;;;5043561;28;20136;-77
2022/06/17 11:20:37;;;;;;;1999.90;999.90;;;25.70;82.90;;;;;;5007795;28;20046;-78
2022/06/17 11:23:09;;;;;;;1999.90;999.90;;;25.60;81.10;;;;;;5043131;28;20113;-78
2022/06/17 11:25:38;;;;;;;1999.90;999.90;;;25.50;84.50;;;;;;5042503;28;20041;-78
2022/06/17 11:28:22;;;;;;;1999.90;999.90;;;25.60;84.00;;;;;;5026826;28;20053;-78
2022/06/17 11:30:57;;;;;;;1999.90;999.90;;;25.70;84.00;;;;;;5012989;28;20041;-78
2022/06/17 11:33:28;;;;;;;1999.90;999.90;;;26.10;86.70;;;;;;5043887;28;20042;-78
2022/06/17 11:36:06;;;;;;;1999.90;999.90;;;26.40;80.30;;;;;;5043041;28;20048;-78
2022/06/17 11:38:33;;;;;;;1999.90;999.90;;;26.80;81.90;;;;;;5047813;28;20507;-78
2022/06/17 11:41:00;;;;;;;1999.90;999.90;;;27.10;77.20;;;;;;5030966;28;20069;-78
2022/06/17 11:43:34;;;;;;;1999.90;999.90;;;27.50;78.30;;;;;;5061346;28;20048;-77
2022/06/17 11:46:17;;;;;;;1999.90;999.90;;;27.70;74.40;;;;;;5043130;28;20042;-78
2022/06/17 11:48:55;;;;;;;1999.90;999.90;;;27.60;73.90;;;;;;5041781;28;20052;-77
2022/06/17 11:51:34;;;;;;;1999.90;999.90;;;27.80;77.00;;;;;;5018174;28;20037;-77
2022/06/17 11:54:05;;;;;;;1999.90;999.90;;;28.00;72.00;;;;;;5060645;28;20049;-78
2022/06/17 11:56:39;;;;;;;1999.90;999.90;;;28.10;74.90;;;;;;5012278;28;20069;-77
2022/06/17 11:59:32;;;;;;;1999.90;999.90;;;28.10;72.10;;;;;;5026406;28;20141;-75
2022/06/17 12:01:57;;;;;;;1999.90;999.90;;;27.90;69.10;;;;;;5022827;28;20127;-77
2022/06/17 12:04:39;;;;;;;1999.90;999.90;;;27.70;71.80;;;;;;5029767;28;20587;-78
2022/06/17 12:07:27;;;;;;;1999.90;999.90;;;27.70;71.40;;;;;;5003633;28;20124;-77
2022/06/17 12:10:16;;;;;;;1999.90;999.90;;;27.70;70.50;;;;;;5041885;28;20132;-78
2022/06/17 12:12:42;;;;;;;1999.90;999.90;;;27.90;71.80;;;;;;5041522;28;20038;-78
2022/06/17 12:15:29;;;;;;;1999.90;999.90;;;28.10;70.30;;;;;;5025428;28;20041;-78
2022/06/17 12:17:57;;;;;;;1999.90;999.90;;;28.20;70.50;;;;;;5026234;28;20163;-78
2022/06/17 12:20:36;;;;;;;1999.90;999.90;;;28.20;69.20;;;;;;5029391;28;20092;-77
2022/06/17 12:23:34;;;;;;;1999.90;999.90;;;28.40;69.10;;;;;;5039945;28;20064;-77
2022/06/17 12:26:05;;;;;;;1999.90;999.90;;;28.60;69.80;;;;;;5025837;28;20049;-77
2022/06/17 12:28:36;;;;;;;1999.90;999.90;;;28.70;66.90;;;;;;5027441;28;20041;-78
2022/06/17 12:31:08;;;;;;;1999.90;999.90;;;28.70;63.20;;;;;;5028667;28;20068;-77
2022/06/17 12:33:36;;;;;;;1999.90;999.90;;;28.60;65.80;;;;;;5027270;28;20053;-75
2022/06/17 12:36:16;;;;;;;1999.90;999.90;;;28.60;63.40;;;;;;5021482;28;20053;-77
2022/06/17 12:39:03;;;;;;;1999.90;999.90;;;28.50;62.10;;;;;;5010161;28;20045;-77